sensor_id;sensor_type;location;lat;lon;timestamp;pressure;altitude;pressure_sealevel;temperature;humidity
30897;BME280;64229;52.246;21.054;2023-01-10T00:00:38;99619.53;;;6.49;100.00
30897;BME280;64229;52.246;21.054;2023-01-10T00:03:05;99609.09;;;6.37;100.00
30897;BME280;64229;52.246;21.054;2023-01-10T00:05:33;99627.94;;;6.41;100.00
30897;BME280;64229;52.246;21.054;2023-01-10T00:07:59;99629.03;;;6.45;100.00
30897;BME280;64229;52.246;21.054;2023-01-10T00:10:26;99633.03;;;6.47;100.00
30897;BME280;64229;52.246;21.054;2023-01-10T00:12:51;99637.25;;;6.48;100.00
30897;BME280;64229;52.246;21.054;2023-01-10T00:15:35;99634.34;;;6.45;100.00
30897;BME280;64229;52.246;21.054;2023-01-10T00:18:01;99639.63;;;6.45;100.00
30897;BME280;64229;52.246;21.054;2023-01-10T00:20:27;99647.47;;;6.29;100.00
30897;BME280;64229;52.246;21.054;2023-01-10T00:22:52;99661.28;;;6.36;100.00
30897;BME280;64229;52.246;21.054;2023-01-10T00:25:18;99654.00;;;6.49;100.00
30897;BME280;64229;52.246;21.054;2023-01-10T00:27:47;99661.06;;;6.38;100.00
30897;BME280;64229;52.246;21.054;2023-01-10T00:30:38;99670.63;;;6.39;100.00
30897;BME280;64229;52.246;21.054;2023-01-10T00:33:04;99669.84;;;6.44;100.00
30897;BME280;64229;52.246;21.054;2023-01-10T00:35:30;99654.38;;;6.30;100.00
30897;BME280;64229;52.246;21.054;2023-01-10T00:37:55;99671.56;;;6.28;100.00
30897;BME280;64229;52.246;21.054;2023-01-10T00:40:25;99677.25;;;6.42;100.00
30897;BME280;64229;52.246;21.054;2023-01-10T00:42:51;99673.63;;;6.53;100.00
30897;BME280;64229;52.246;21.054;2023-01-10T00:45:35;99678.94;;;6.53;100.00
30897;BME280;64229;52.246;21.054;2023-01-10T00:48:01;99684.75;;;6.50;100.00
30897;BME280;64229;52.246;21.054;2023-01-10T00:50:26;99695.91;;;6.52;100.00
30897;BME280;64229;52.246;21.054;2023-01-10T00:52:51;99697.44;;;6.48;100.00
30897;BME280;64229;52.246;21.054;2023-01-10T00:55:17;99682.13;;;6.23;100.00
30897;BME280;64229;52.246;21.054;2023-01-10T00:57:42;99706.31;;;6.31;100.00
30897;BME280;64229;52.246;21.054;2023-01-10T01:00:08;99699.28;;;6.47;100.00
30897;BME280;64229;52.246;21.054;2023-01-10T01:02:34;99701.16;;;6.47;100.00
30897;BME280;64229;52.246;21.054;2023-01-10T01:05:02;99712.63;;;6.57;100.00
30897;BME280;64229;52.246;21.054;2023-01-10T01:07:27;99703.06;;;6.51;100.00
30897;BME280;64229;52.246;21.054;2023-01-10T01:09:52;99706.69;;;6.45;100.00
30897;BME280;64229;52.246;21.054;2023-01-10T01:12:36;99712.16;;;6.60;100.00
30897;BME280;64229;52.246;21.054;2023-01-10T01:15:02;99721.75;;;6.66;100.00
30897;BME280;64229;52.246;21.054;2023-01-10T01:17:27;99725.00;;;6.74;100.00
30897;BME280;64229;52.246;21.054;2023-01-10T01:19:53;99726.84;;;6.73;100.00
30897;BME280;64229;52.246;21.054;2023-01-10T01:22:18;99728.59;;;6.62;100.00
30897;BME280;64229;52.246;21.054;2023-01-10T01:24:44;99732.88;;;6.68;100.00
30897;BME280;64229;52.246;21.054;2023-01-10T01:27:09;99728.19;;;6.76;100.00
30897;BME280;64229;52.246;21.054;2023-01-10T01:29:34;99726.53;;;6.70;100.00
30897;BME280;64229;52.246;21.054;2023-01-10T01:32:00;99739.50;;;6.66;100.00
30897;BME280;64229;52.246;21.054;2023-01-10T01:34:26;99747.53;;;6.71;100.00
30897;BME280;64229;52.246;21.054;2023-01-10T01:36:51;99746.06;;;6.58;100.00
30897;BME280;64229;52.246;21.054;2023-01-10T01:39:17;99744.16;;;6.54;100.00
30897;BME280;64229;52.246;21.054;2023-01-10T01:41:42;99740.66;;;6.48;100.00
30897;BME280;64229;52.246;21.054;2023-01-10T01:44:29;99741.31;;;6.60;100.00
30897;BME280;64229;52.246;21.054;2023-01-10T01:47:13;99745.34;;;6.68;100.00
30897;BME280;64229;52.246;21.054;2023-01-10T01:49:43;99747.25;;;6.73;100.00
30897;BME280;64229;52.246;21.054;2023-01-10T01:52:17;99749.06;;;6.67;100.00
30897;BME280;64229;52.246;21.054;2023-01-10T01:54:45;99745.56;;;6.61;100.00
30897;BME280;64229;52.246;21.054;2023-01-10T01:57:13;99743.47;;;6.63;100.00
30897;BME280;64229;52.246;21.054;2023-01-10T01:59:47;99745.09;;;6.70;100.00
30897;BME280;64229;52.246;21.054;2023-01-10T02:02:19;99743.00;;;6.72;100.00
30897;BME280;64229;52.246;21.054;2023-01-10T02:05:10;99754.16;;;6.74;100.00
30897;BME280;64229;52.246;21.054;2023-01-10T02:07:39;99757.25;;;6.65;100.00
30897;BME280;64229;52.246;21.054;2023-01-10T02:10:10;99766.09;;;6.71;100.00
30897;BME280;64229;52.246;21.054;2023-01-10T02:12:38;99764.16;;;6.66;100.00
30897;BME280;64229;52.246;21.054;2023-01-10T02:15:05;99765.50;;;6.69;100.00
30897;BME280;64229;52.246;21.054;2023-01-10T02:17:30;99767.63;;;6.67;100.00
30897;BME280;64229;52.246;21.054;2023-01-10T02:19:59;99774.41;;;6.58;100.00
30897;BME280;64229;52.246;21.054;2023-01-10T02:40:04;99783.66;;;6.50;100.00
30897;BME280;64229;52.246;21.054;2023-01-10T02:45:19;99783.28;;;6.42;100.00
30897;BME280;64229;52.246;21.054;2023-01-10T02:47:45;99781.69;;;6.41;100.00
30897;BME280;64229;52.246;21.054;2023-01-10T03:01:52;99787.91;;;6.51;100.00
30897;BME280;64229;52.246;21.054;2023-01-10T03:04:43;99796.66;;;6.52;100.00
30897;BME280;64229;52.246;21.054;2023-01-10T03:07:39;99796.66;;;6.52;100.00
30897;BME280;64229;52.246;21.054;2023-01-10T03:10:17;99797.19;;;6.54;100.00
30897;BME280;64229;52.246;21.054;2023-01-10T03:12:52;99794.69;;;6.42;100.00
30897;BME280;64229;52.246;21.054;2023-01-10T03:15:24;99793.69;;;6.48;100.00
30897;BME280;64229;52.246;21.054;2023-01-10T03:17:55;99794.44;;;6.44;100.00
30897;BME280;64229;52.246;21.054;2023-01-10T03:20:23;99798.75;;;6.50;100.00
30897;BME280;64229;52.246;21.054;2023-01-10T03:22:50;99799.69;;;6.38;100.00
30897;BME280;64229;52.246;21.054;2023-01-10T03:25:20;99807.19;;;6.47;100.00
30897;BME280;64229;52.246;21.054;2023-01-10T03:27:54;99803.28;;;6.54;100.00
30897;BME280;64229;52.246;21.054;2023-01-10T03:30:51;99805.56;;;6.41;100.00
30897;BME280;64229;52.246;21.054;2023-01-10T03:33:23;99809.53;;;6.43;100.00
30897;BME280;64229;52.246;21.054;2023-01-10T03:47:00;99829.00;;;6.54;100.00
30897;BME280;64229;52.246;21.054;2023-01-10T03:49:30;99828.47;;;6.52;100.00
30897;BME280;64229;52.246;21.054;2023-01-10T03:51:58;99832.84;;;6.41;100.00
30897;BME280;64229;52.246;21.054;2023-01-10T03:54:24;99840.91;;;6.51;100.00
30897;BME280;64229;52.246;21.054;2023-01-10T03:56:50;99838.56;;;6.55;100.00
30897;BME280;64229;52.246;21.054;2023-01-10T03:59:22;99847.72;;;6.42;100.00
30897;BME280;64229;52.246;21.054;2023-01-10T04:01:49;99853.81;;;6.43;100.00
30897;BME280;64229;52.246;21.054;2023-01-10T04:04:15;99840.19;;;6.34;100.00
30897;BME280;64229;52.246;21.054;2023-01-10T04:06:40;99838.41;;;6.40;100.00
30897;BME280;64229;52.246;21.054;2023-01-10T04:09:06;99851.66;;;6.40;100.00
30897;BME280;64229;52.246;21.054;2023-01-10T04:11:31;99858.06;;;6.44;100.00
30897;BME280;64229;52.246;21.054;2023-01-10T04:13:57;99860.78;;;6.49;100.00
30897;BME280;64229;52.246;21.054;2023-01-10T04:16:22;99861.34;;;6.51;100.00
30897;BME280;64229;52.246;21.054;2023-01-10T04:18:48;99868.03;;;6.58;100.00
30897;BME280;64229;52.246;21.054;2023-01-10T04:21:13;99875.25;;;6.63;100.00
30897;BME280;64229;52.246;21.054;2023-01-10T04:23:39;99872.84;;;6.61;100.00
30897;BME280;64229;52.246;21.054;2023-01-10T04:26:05;99877.16;;;6.67;100.00
30897;BME280;64229;52.246;21.054;2023-01-10T04:28:30;99883.38;;;6.56;100.00
30897;BME280;64229;52.246;21.054;2023-01-10T04:30:55;99884.25;;;6.62;100.00
30897;BME280;64229;52.246;21.054;2023-01-10T04:33:21;99889.31;;;6.63;100.00
30897;BME280;64229;52.246;21.054;2023-01-10T04:35:50;99894.00;;;6.56;100.00
30897;BME280;64229;52.246;21.054;2023-01-10T04:38:16;99888.13;;;6.54;100.00
30897;BME280;64229;52.246;21.054;2023-01-10T08:08:08;100186.16;;;6.53;100.00
30897;BME280;64229;52.246;21.054;2023-01-10T08:10:35;100189.69;;;6.59;100.00
30897;BME280;64229;52.246;21.054;2023-01-10T08:13:01;100202.72;;;6.60;100.00
30897;BME280;64229;52.246;21.054;2023-01-10T08:15:28;100203.91;;;6.53;100.00
30897;BME280;64229;52.246;21.054;2023-01-10T08:17:54;100206.72;;;6.46;100.00
30897;BME280;64229;52.246;21.054;2023-01-10T08:20:19;100208.72;;;6.39;100.00
30897;BME280;64229;52.246;21.054;2023-01-10T08:22:44;100211.31;;;6.51;100.00
30897;BME280;64229;52.246;21.054;2023-01-10T08:25:10;100219.25;;;6.51;100.00
30897;BME280;64229;52.246;21.054;2023-01-10T08:27:36;100223.28;;;6.53;100.00
30897;BME280;64229;52.246;21.054;2023-01-10T08:30:03;100228.47;;;6.48;100.00
30897;BME280;64229;52.246;21.054;2023-01-10T08:32:28;100222.00;;;6.56;100.00
30897;BME280;64229;52.246;21.054;2023-01-10T08:34:54;100231.66;;;6.62;99.60
30897;BME280;64229;52.246;21.054;2023-01-10T08:37:19;100237.66;;;6.57;99.68
30897;BME280;64229;52.246;21.054;2023-01-10T08:39:44;100240.78;;;6.54;99.19
30897;BME280;64229;52.246;21.054;2023-01-10T08:42:10;100244.88;;;6.45;99.26
30897;BME280;64229;52.246;21.054;2023-01-10T08:44:35;100241.22;;;6.34;98.92
30897;BME280;64229;52.246;21.054;2023-01-10T08:47:01;100252.13;;;6.21;100.00
30897;BME280;64229;52.246;21.054;2023-01-10T08:49:26;100258.31;;;6.27;100.00
30897;BME280;64229;52.246;21.054;2023-01-10T08:51:52;100258.00;;;6.23;100.00
30897;BME280;64229;52.246;21.054;2023-01-10T08:54:17;100267.09;;;6.27;99.32
30897;BME280;64229;52.246;21.054;2023-01-10T08:56:42;100269.88;;;6.21;99.88
30897;BME280;64229;52.246;21.054;2023-01-10T08:59:08;100279.69;;;6.20;99.59
30897;BME280;64229;52.246;21.054;2023-01-10T09:01:33;100287.44;;;6.10;100.00
30897;BME280;64229;52.246;21.054;2023-01-10T09:03:59;100290.16;;;6.15;99.51
30897;BME280;64229;52.246;21.054;2023-01-10T09:06:24;100292.56;;;6.17;99.96
30897;BME280;64229;52.246;21.054;2023-01-10T09:08:50;100291.31;;;6.19;98.82
30897;BME280;64229;52.246;21.054;2023-01-10T09:11:16;100285.22;;;6.19;100.00
30897;BME280;64229;52.246;21.054;2023-01-10T09:13:41;100289.25;;;6.21;99.51
30897;BME280;64229;52.246;21.054;2023-01-10T09:16:08;100287.72;;;6.25;98.96
30897;BME280;64229;52.246;21.054;2023-01-10T09:18:34;100289.56;;;6.25;98.91
30897;BME280;64229;52.246;21.054;2023-01-10T09:20:59;100300.50;;;6.28;98.83
30897;BME280;64229;52.246;21.054;2023-01-10T09:23:25;100305.81;;;6.28;98.89
30897;BME280;64229;52.246;21.054;2023-01-10T09:25:52;100300.50;;;6.28;99.43
30897;BME280;64229;52.246;21.054;2023-01-10T09:28:20;100310.06;;;6.29;99.91
30897;BME280;64229;52.246;21.054;2023-01-10T09:30:46;100304.06;;;6.34;98.98
30897;BME280;64229;52.246;21.054;2023-01-10T09:33:12;100306.38;;;6.30;98.95
30897;BME280;64229;52.246;21.054;2023-01-10T09:35:39;100290.97;;;6.16;99.48
30897;BME280;64229;52.246;21.054;2023-01-10T09:38:07;100309.28;;;6.29;100.00
30897;BME280;64229;52.246;21.054;2023-01-10T09:46:22;100307.22;;;6.48;98.58
30897;BME280;64229;52.246;21.054;2023-01-10T09:51:35;100297.88;;;6.28;98.67
30897;BME280;64229;52.246;21.054;2023-01-10T09:54:01;100296.03;;;6.29;100.00
30897;BME280;64229;52.246;21.054;2023-01-10T09:56:28;100292.09;;;6.31;100.00
30897;BME280;64229;52.246;21.054;2023-01-10T09:58:55;100294.59;;;6.38;100.00
30897;BME280;64229;52.246;21.054;2023-01-10T10:01:34;100296.53;;;6.43;98.81
30897;BME280;64229;52.246;21.054;2023-01-10T10:06:47;100299.63;;;6.51;99.57
30897;BME280;64229;52.246;21.054;2023-01-10T10:09:14;100304.69;;;6.53;100.00
30897;BME280;64229;52.246;21.054;2023-01-10T10:12:09;100295.06;;;6.63;97.62
30897;BME280;64229;52.246;21.054;2023-01-10T10:17:40;100293.97;;;6.48;98.93
30897;BME280;64229;52.246;21.054;2023-01-10T10:20:30;100296.00;;;6.57;98.16
30897;BME280;64229;52.246;21.054;2023-01-10T10:28:43;100313.06;;;6.78;96.49
30897;BME280;64229;52.246;21.054;2023-01-10T10:34:03;100316.22;;;6.75;96.58
30897;BME280;64229;52.246;21.054;2023-01-10T10:36:46;100323.13;;;6.76;95.63
30897;BME280;64229;52.246;21.054;2023-01-10T10:39:16;100320.91;;;6.56;97.10
30897;BME280;64229;52.246;21.054;2023-01-10T10:41:45;100319.31;;;6.55;98.33
30897;BME280;64229;52.246;21.054;2023-01-10T10:44:29;100318.19;;;6.51;97.30
30897;BME280;64229;52.246;21.054;2023-01-10T10:46:58;100311.09;;;6.57;96.51
30897;BME280;64229;52.246;21.054;2023-01-10T10:49:36;100329.91;;;6.55;97.43
30897;BME280;64229;52.246;21.054;2023-01-10T10:52:12;100327.97;;;6.51;97.71
30897;BME280;64229;52.246;21.054;2023-01-10T10:54:40;100337.72;;;6.62;96.86
30897;BME280;64229;52.246;21.054;2023-01-10T10:57:06;100334.59;;;6.65;97.21
30897;BME280;64229;52.246;21.054;2023-01-10T10:59:31;100338.63;;;6.67;97.14
30897;BME280;64229;52.246;21.054;2023-01-10T11:01:56;100333.19;;;6.74;96.52
30897;BME280;64229;52.246;21.054;2023-01-10T11:04:22;100341.25;;;6.67;97.35
30897;BME280;64229;52.246;21.054;2023-01-10T11:06:48;100332.44;;;6.62;97.88
30897;BME280;64229;52.246;21.054;2023-01-10T11:09:20;100337.50;;;6.63;97.62
30897;BME280;64229;52.246;21.054;2023-01-10T11:11:52;100326.16;;;6.68;96.98
30897;BME280;64229;52.246;21.054;2023-01-10T11:14:47;100340.09;;;6.47;97.45
30897;BME280;64229;52.246;21.054;2023-01-10T11:22:19;100340.66;;;6.49;96.62
30897;BME280;64229;52.246;21.054;2023-01-10T11:24:57;100344.31;;;6.59;96.92
30897;BME280;64229;52.246;21.054;2023-01-10T11:27:27;100359.84;;;6.39;97.84
30897;BME280;64229;52.246;21.054;2023-01-10T11:29:59;100362.53;;;6.27;99.15
30897;BME280;64229;52.246;21.054;2023-01-10T11:32:34;100373.75;;;6.46;98.24
30897;BME280;64229;52.246;21.054;2023-01-10T11:35:06;100377.03;;;6.65;96.47
30897;BME280;64229;52.246;21.054;2023-01-10T11:37:34;100384.41;;;6.63;97.46
30897;BME280;64229;52.246;21.054;2023-01-10T11:40:17;100386.59;;;6.66;96.21
30897;BME280;64229;52.246;21.054;2023-01-10T11:42:43;100395.63;;;6.53;96.87
30897;BME280;64229;52.246;21.054;2023-01-10T11:47:47;100394.22;;;6.62;96.50
30897;BME280;64229;52.246;21.054;2023-01-10T11:50:24;100396.16;;;6.67;97.01
30897;BME280;64229;52.246;21.054;2023-01-10T11:52:50;100406.44;;;6.63;97.23
30897;BME280;64229;52.246;21.054;2023-01-10T11:55:28;100402.22;;;6.51;97.43
30897;BME280;64229;52.246;21.054;2023-01-10T11:58:04;100393.00;;;6.53;96.99
30897;BME280;64229;52.246;21.054;2023-01-10T12:00:40;100399.66;;;6.56;96.30
30897;BME280;64229;52.246;21.054;2023-01-10T12:03:37;100399.22;;;6.47;96.98
30897;BME280;64229;52.246;21.054;2023-01-10T12:06:13;100403.59;;;6.53;97.40
30897;BME280;64229;52.246;21.054;2023-01-10T12:08:39;100413.03;;;6.61;96.47
30897;BME280;64229;52.246;21.054;2023-01-10T12:13:46;100412.56;;;6.64;96.97
30897;BME280;64229;52.246;21.054;2023-01-10T12:16:23;100419.19;;;6.78;95.62
30897;BME280;64229;52.246;21.054;2023-01-10T12:18:51;100425.16;;;6.85;94.49
30897;BME280;64229;52.246;21.054;2023-01-10T12:21:34;100428.16;;;6.89;94.61
30897;BME280;64229;52.246;21.054;2023-01-10T12:24:05;100436.03;;;6.84;95.55
30897;BME280;64229;52.246;21.054;2023-01-10T12:26:34;100430.41;;;6.68;95.54
30897;BME280;64229;52.246;21.054;2023-01-10T12:29:10;100428.22;;;6.65;95.29
30897;BME280;64229;52.246;21.054;2023-01-10T12:31:38;100441.41;;;6.89;94.06
30897;BME280;64229;52.246;21.054;2023-01-10T12:34:12;100441.09;;;6.85;94.60
30897;BME280;64229;52.246;21.054;2023-01-10T12:36:58;100447.31;;;6.79;94.38
30897;BME280;64229;52.246;21.054;2023-01-10T12:39:33;100454.59;;;6.84;94.16
30897;BME280;64229;52.246;21.054;2023-01-10T12:45:16;100466.84;;;6.73;95.11
30897;BME280;64229;52.246;21.054;2023-01-10T12:50:25;100474.34;;;6.76;94.64
30897;BME280;64229;52.246;21.054;2023-01-10T12:52:58;100473.97;;;6.84;94.19
30897;BME280;64229;52.246;21.054;2023-01-10T12:55:39;100473.25;;;6.89;93.97
30897;BME280;64229;52.246;21.054;2023-01-10T12:58:11;100478.34;;;6.79;94.48
30897;BME280;64229;52.246;21.054;2023-01-10T13:00:44;100483.63;;;6.90;93.76
30897;BME280;64229;52.246;21.054;2023-01-10T13:03:21;100489.84;;;6.96;93.09
30897;BME280;64229;52.246;21.054;2023-01-10T13:05:49;100490.09;;;6.94;93.02
30897;BME280;64229;52.246;21.054;2023-01-10T13:08:18;100502.13;;;6.74;94.11
30897;BME280;64229;52.246;21.054;2023-01-10T13:10:47;100502.22;;;6.79;94.77
30897;BME280;64229;52.246;21.054;2023-01-10T13:13:36;100499.25;;;6.75;94.96
30897;BME280;64229;52.246;21.054;2023-01-10T13:21:34;100518.63;;;6.76;94.52
30897;BME280;64229;52.246;21.054;2023-01-10T13:24:16;100519.66;;;6.75;94.76
30897;BME280;64229;52.246;21.054;2023-01-10T13:29:22;100533.03;;;6.91;93.70
30897;BME280;64229;52.246;21.054;2023-01-10T13:31:49;100534.50;;;6.87;94.00
30897;BME280;64229;52.246;21.054;2023-01-10T13:34:23;100536.34;;;6.87;93.75
30897;BME280;64229;52.246;21.054;2023-01-10T13:36:58;100546.06;;;6.81;92.89
30897;BME280;64229;52.246;21.054;2023-01-10T13:39:42;100545.72;;;6.78;94.21
30897;BME280;64229;52.246;21.054;2023-01-10T13:42:39;100546.66;;;6.83;93.64
30897;BME280;64229;52.246;21.054;2023-01-10T13:45:26;100547.41;;;6.95;92.76
30897;BME280;64229;52.246;21.054;2023-01-10T13:52:46;100546.84;;;6.93;92.68
30897;BME280;64229;52.246;21.054;2023-01-10T13:55:32;100544.22;;;6.82;92.42
30897;BME280;64229;52.246;21.054;2023-01-10T14:01:26;100557.38;;;6.65;93.65
30897;BME280;64229;52.246;21.054;2023-01-10T14:06:58;100563.25;;;6.79;93.24
30897;BME280;64229;52.246;21.054;2023-01-10T14:09:35;100572.47;;;6.76;93.79
30897;BME280;64229;52.246;21.054;2023-01-10T14:12:06;100572.81;;;6.80;93.16
30897;BME280;64229;52.246;21.054;2023-01-10T14:17:35;100581.16;;;6.72;93.87
30897;BME280;64229;52.246;21.054;2023-01-10T14:20:03;100590.16;;;6.71;93.97
30897;BME280;64229;52.246;21.054;2023-01-10T14:22:32;100588.75;;;6.56;94.40
30897;BME280;64229;52.246;21.054;2023-01-10T14:25:00;100596.94;;;6.55;93.88
30897;BME280;64229;52.246;21.054;2023-01-10T14:27:35;100586.66;;;6.58;94.45
30897;BME280;64229;52.246;21.054;2023-01-10T14:30:02;100591.53;;;6.50;94.27
30897;BME280;64229;52.246;21.054;2023-01-10T14:32:32;100588.41;;;6.41;94.55
30897;BME280;64229;52.246;21.054;2023-01-10T14:35:06;100599.13;;;6.58;94.17
30897;BME280;64229;52.246;21.054;2023-01-10T14:37:38;100597.97;;;6.54;94.64
30897;BME280;64229;52.246;21.054;2023-01-10T14:42:46;100599.47;;;6.50;93.72
30897;BME280;64229;52.246;21.054;2023-01-10T14:47:38;100612.28;;;6.53;93.45
30897;BME280;64229;52.246;21.054;2023-01-10T14:50:04;100609.06;;;6.62;92.89
30897;BME280;64229;52.246;21.054;2023-01-10T14:52:32;100605.03;;;6.60;92.72
30897;BME280;64229;52.246;21.054;2023-01-10T14:55:11;100599.13;;;6.58;93.02
30897;BME280;64229;52.246;21.054;2023-01-10T14:57:38;100591.41;;;6.56;92.47
30897;BME280;64229;52.246;21.054;2023-01-10T15:02:34;100603.03;;;6.44;93.19
30897;BME280;64229;52.246;21.054;2023-01-10T15:05:23;100607.66;;;6.48;92.57
30897;BME280;64229;52.246;21.054;2023-01-10T15:07:49;100618.38;;;6.42;92.40
30897;BME280;64229;52.246;21.054;2023-01-10T15:10:27;100620.09;;;6.36;93.46
30897;BME280;64229;52.246;21.054;2023-01-10T15:12:57;100609.84;;;6.40;92.68
30897;BME280;64229;52.246;21.054;2023-01-10T15:15:33;100618.38;;;6.30;92.34
30897;BME280;64229;52.246;21.054;2023-01-10T15:18:04;100620.22;;;6.29;92.45
30897;BME280;64229;52.246;21.054;2023-01-10T15:20:30;100616.16;;;6.27;92.28
30897;BME280;64229;52.246;21.054;2023-01-10T15:22:58;100623.53;;;6.25;91.97
30897;BME280;64229;52.246;21.054;2023-01-10T15:27:52;100632.28;;;6.25;92.04
30897;BME280;64229;52.246;21.054;2023-01-10T15:30:24;100628.94;;;6.18;92.31
30897;BME280;64229;52.246;21.054;2023-01-10T15:32:52;100636.66;;;6.20;92.04
30897;BME280;64229;52.246;21.054;2023-01-10T15:35:22;100635.28;;;6.17;91.63
30897;BME280;64229;52.246;21.054;2023-01-10T15:37:52;100631.66;;;6.00;92.02
30897;BME280;64229;52.246;21.054;2023-01-10T15:40:30;100650.13;;;6.06;91.75
30897;BME280;64229;52.246;21.054;2023-01-10T15:43:29;100652.72;;;5.95;92.71
30897;BME280;64229;52.246;21.054;2023-01-10T15:45:57;100647.31;;;6.01;91.80
30897;BME280;64229;52.246;21.054;2023-01-10T15:48:39;100660.34;;;6.03;91.46
30897;BME280;64229;52.246;21.054;2023-01-10T15:57:13;100677.09;;;6.15;89.78
30897;BME280;64229;52.246;21.054;2023-01-10T15:59:38;100677.44;;;6.07;90.71
30897;BME280;64229;52.246;21.054;2023-01-10T16:04:40;100680.88;;;6.07;89.88
30897;BME280;64229;52.246;21.054;2023-01-10T16:07:22;100684.66;;;6.00;90.36
30897;BME280;64229;52.246;21.054;2023-01-10T16:09:52;100689.38;;;5.98;90.46
30897;BME280;64229;52.246;21.054;2023-01-10T16:12:45;100690.41;;;5.97;90.33
30897;BME280;64229;52.246;21.054;2023-01-10T16:15:31;100691.28;;;5.91;90.72
30897;BME280;64229;52.246;21.054;2023-01-10T16:17:57;100684.38;;;5.71;91.02
30897;BME280;64229;52.246;21.054;2023-01-10T16:20:29;100698.03;;;5.87;91.15
30897;BME280;64229;52.246;21.054;2023-01-10T16:22:56;100689.06;;;5.88;91.30
30897;BME280;64229;52.246;21.054;2023-01-10T16:25:33;100685.03;;;5.85;90.35
30897;BME280;64229;52.246;21.054;2023-01-10T16:27:59;100697.03;;;5.69;91.24
30897;BME280;64229;52.246;21.054;2023-01-10T16:30:30;100703.41;;;5.80;91.17
30897;BME280;64229;52.246;21.054;2023-01-10T16:32:57;100700.75;;;5.80;91.18
30897;BME280;64229;52.246;21.054;2023-01-10T16:35:23;100698.63;;;5.70;91.83
30897;BME280;64229;52.246;21.054;2023-01-10T16:37:55;100689.81;;;5.76;91.42
30897;BME280;64229;52.246;21.054;2023-01-10T16:40:24;100694.38;;;5.69;92.21
30897;BME280;64229;52.246;21.054;2023-01-10T16:42:51;100697.59;;;5.71;91.67
30897;BME280;64229;52.246;21.054;2023-01-10T16:45:34;100703.88;;;5.59;92.37
30897;BME280;64229;52.246;21.054;2023-01-10T16:48:00;100695.28;;;5.45;93.54
30897;BME280;64229;52.246;21.054;2023-01-10T16:50:26;100695.41;;;5.50;93.15
30897;BME280;64229;52.246;21.054;2023-01-10T16:52:51;100694.84;;;5.48;93.05
30897;BME280;64229;52.246;21.054;2023-01-10T16:55:23;100704.38;;;5.49;93.23
30897;BME280;64229;52.246;21.054;2023-01-10T16:57:49;100705.38;;;5.55;93.23
30897;BME280;64229;52.246;21.054;2023-01-10T17:00:16;100700.72;;;5.50;93.54
30897;BME280;64229;52.246;21.054;2023-01-10T17:02:42;100707.41;;;5.52;93.34
30897;BME280;64229;52.246;21.054;2023-01-10T17:05:11;100689.75;;;5.46;93.55
30897;BME280;64229;52.246;21.054;2023-01-10T17:07:36;100690.41;;;5.42;93.83
30897;BME280;64229;52.246;21.054;2023-01-10T17:10:03;100704.09;;;5.39;93.76
30897;BME280;64229;52.246;21.054;2023-01-10T17:12:34;100707.19;;;5.36;94.08
30897;BME280;64229;52.246;21.054;2023-01-10T17:15:04;100719.25;;;5.32;95.01
30897;BME280;64229;52.246;21.054;2023-01-10T17:17:30;100731.25;;;5.34;94.82
30897;BME280;64229;52.246;21.054;2023-01-10T17:19:55;100741.59;;;5.36;94.86
30897;BME280;64229;52.246;21.054;2023-01-10T17:22:21;100741.97;;;5.39;94.10
30897;BME280;64229;52.246;21.054;2023-01-10T17:24:46;100741.16;;;5.39;94.04
30897;BME280;64229;52.246;21.054;2023-01-10T17:27:12;100738.28;;;5.40;94.17
30897;BME280;64229;52.246;21.054;2023-01-10T17:29:37;100745.19;;;5.41;93.94
30897;BME280;64229;52.246;21.054;2023-01-10T17:32:04;100745.34;;;5.28;94.65
30897;BME280;64229;52.246;21.054;2023-01-10T17:34:30;100745.56;;;5.27;94.73
30897;BME280;64229;52.246;21.054;2023-01-10T17:37:01;100750.41;;;5.30;94.70
30897;BME280;64229;52.246;21.054;2023-01-10T17:39:27;100755.34;;;5.26;94.92
30897;BME280;64229;52.246;21.054;2023-01-10T17:41:52;100756.72;;;5.29;94.84
30897;BME280;64229;52.246;21.054;2023-01-10T17:44:17;100762.59;;;5.31;93.83
30897;BME280;64229;52.246;21.054;2023-01-10T17:46:43;100769.75;;;5.30;93.28
30897;BME280;64229;52.246;21.054;2023-01-10T17:49:08;100768.94;;;5.30;93.65
30897;BME280;64229;52.246;21.054;2023-01-10T17:51:33;100763.81;;;5.35;92.76
30897;BME280;64229;52.246;21.054;2023-01-10T17:53:59;100772.19;;;5.32;92.62
30897;BME280;64229;52.246;21.054;2023-01-10T17:56:25;100775.47;;;5.27;92.82
30897;BME280;64229;52.246;21.054;2023-01-10T17:58:50;100773.50;;;5.22;93.07
30897;BME280;64229;52.246;21.054;2023-01-10T18:01:19;100778.38;;;5.19;93.42
30897;BME280;64229;52.246;21.054;2023-01-10T18:03:45;100772.03;;;5.02;93.85
30897;BME280;64229;52.246;21.054;2023-01-10T18:06:11;100795.53;;;5.16;93.62
30897;BME280;64229;52.246;21.054;2023-01-10T18:08:36;100787.84;;;5.08;94.57
30897;BME280;64229;52.246;21.054;2023-01-10T18:11:02;100793.09;;;5.15;93.58
30897;BME280;64229;52.246;21.054;2023-01-10T18:13:28;100789.31;;;5.04;93.81
30897;BME280;64229;52.246;21.054;2023-01-10T18:15:54;100799.91;;;5.04;94.75
30897;BME280;64229;52.246;21.054;2023-01-10T18:18:20;100800.47;;;5.06;94.58
30897;BME280;64229;52.246;21.054;2023-01-10T18:20:47;100801.28;;;5.07;94.27
30897;BME280;64229;52.246;21.054;2023-01-10T18:23:15;100803.13;;;5.06;93.83
30897;BME280;64229;52.246;21.054;2023-01-10T18:26:05;100800.69;;;5.05;93.99
30897;BME280;64229;52.246;21.054;2023-01-10T18:28:36;100804.53;;;5.09;93.84
30897;BME280;64229;52.246;21.054;2023-01-10T18:31:05;100809.56;;;5.17;93.41
30897;BME280;64229;52.246;21.054;2023-01-10T18:33:31;100814.63;;;5.18;92.89
30897;BME280;64229;52.246;21.054;2023-01-10T18:35:57;100798.97;;;5.17;91.82